createdAt,value
2018-12-30T00:00:05.047Z,5.04
2018-12-30T00:02:32.179Z,5.19
2018-12-30T00:04:59.231Z,5.19
2018-12-30T00:07:26.444Z,5.14
2018-12-30T00:09:53.204Z,5.23
2018-12-30T00:12:20.072Z,5.27
2018-12-30T00:14:46.936Z,5.27
2018-12-30T00:17:13.659Z,5.27
2018-12-30T00:19:42.674Z,5.27
2018-12-30T00:22:09.031Z,5.23
2018-12-30T00:24:35.734Z,5.30
2018-12-30T00:27:02.895Z,5.32
2018-12-30T00:32:12.647Z,5.36
2018-12-30T00:34:42.098Z,5.25
2018-12-30T00:37:08.821Z,5.27
2018-12-30T00:39:35.529Z,5.40
2018-12-30T00:42:02.385Z,5.32
2018-12-30T00:44:32.105Z,5.32
2018-12-30T00:46:58.829Z,5.32
2018-12-30T00:49:25.941Z,5.33
2018-12-30T00:51:52.653Z,5.21
2018-12-30T00:54:19.344Z,5.19
2018-12-30T00:56:46.083Z,5.19
2018-12-30T00:59:12.783Z,5.19
2018-12-30T01:01:40.035Z,5.17
2018-12-30T01:04:06.717Z,5.17
2018-12-30T01:06:33.558Z,5.21
2018-12-30T01:09:00.272Z,5.20
2018-12-30T01:11:27.339Z,5.26
2018-12-30T01:13:54.041Z,5.25
2018-12-30T01:16:20.904Z,5.26
2018-12-30T01:18:47.646Z,5.36
2018-12-30T01:21:14.371Z,5.36
2018-12-30T01:23:41.088Z,5.38
2018-12-30T01:26:08.135Z,5.39
2018-12-30T01:28:34.844Z,5.39
2018-12-30T01:31:03.456Z,5.36
2018-12-30T01:33:30.205Z,5.41
2018-12-30T01:35:58.375Z,5.37
2018-12-30T01:38:25.106Z,5.42
2018-12-30T01:40:51.854Z,5.44
2018-12-30T01:43:18.963Z,5.47
2018-12-30T01:45:47.206Z,5.47
2018-12-30T01:48:13.898Z,5.49
2018-12-30T01:50:40.588Z,5.51
2018-12-30T01:53:07.925Z,5.54
2018-12-30T01:55:34.760Z,5.51
2018-12-30T01:58:01.601Z,5.56
2018-12-30T02:00:28.310Z,5.66
2018-12-30T02:02:58.034Z,5.66
2018-12-30T02:05:30.057Z,5.66
2018-12-30T02:07:56.784Z,5.71
2018-12-30T02:10:23.552Z,5.73
2018-12-30T02:12:50.687Z,5.73
2018-12-30T02:15:17.388Z,5.75
2018-12-30T02:17:44.114Z,5.85
2018-12-30T02:20:13.324Z,5.85
2018-12-30T02:22:42.727Z,5.86
2018-12-30T02:25:12.264Z,5.85
2018-12-30T02:27:39.416Z,5.83
2018-12-30T02:30:06.157Z,5.83
2018-12-30T02:32:32.867Z,5.97
2018-12-30T02:34:59.692Z,5.97
2018-12-30T02:37:26.407Z,5.94
2018-12-30T02:39:53.490Z,5.92
2018-12-30T02:42:20.193Z,5.99
2018-12-30T02:44:48.062Z,5.94
2018-12-30T02:47:17.642Z,5.95
2018-12-30T02:49:44.435Z,5.95
2018-12-30T02:52:11.147Z,5.98
2018-12-30T02:54:38.385Z,6.04
2018-12-30T02:57:05.100Z,6.10
2018-12-30T02:59:31.804Z,6.10
2018-12-30T03:01:59.393Z,6.10
2018-12-30T03:04:26.129Z,6.16
2018-12-30T03:06:52.829Z,6.13
2018-12-30T03:09:19.539Z,6.13
2018-12-30T03:11:46.388Z,6.13
2018-12-30T03:14:16.235Z,6.09
2018-12-30T03:16:48.419Z,6.13
2018-12-30T03:19:17.340Z,6.16
2018-12-30T03:21:44.770Z,6.10
2018-12-30T03:24:11.504Z,6.10
2018-12-30T03:26:38.239Z,6.16
2018-12-30T03:29:07.781Z,6.16
2018-12-30T03:31:34.598Z,6.19
2018-12-30T03:34:01.302Z,6.19
2018-12-30T03:36:30.423Z,6.16
2018-12-30T03:38:57.161Z,6.22
2018-12-30T03:41:23.993Z,6.17
2018-12-30T03:43:50.751Z,6.17
2018-12-30T03:46:17.671Z,6.17
2018-12-30T03:48:44.363Z,6.17
2018-12-30T03:51:11.089Z,6.17
2018-12-30T03:53:37.812Z,6.16
2018-12-30T03:56:04.590Z,6.21
2018-12-30T03:58:31.403Z,6.21
2018-12-30T04:00:58.141Z,6.21
2018-12-30T04:03:24.869Z,6.23
2018-12-30T04:05:51.583Z,6.26
2018-12-30T04:08:18.684Z,6.26
2018-12-30T04:10:45.434Z,6.26
2018-12-30T04:13:12.167Z,6.26
2018-12-30T04:15:38.854Z,6.25
2018-12-30T04:18:05.836Z,6.36
2018-12-30T04:20:32.562Z,6.37
2018-12-30T04:22:59.280Z,6.37
2018-12-30T04:25:26.017Z,6.35
2018-12-30T04:27:53.034Z,6.35
2018-12-30T04:30:19.761Z,6.32
2018-12-30T04:32:46.516Z,6.37
2018-12-30T04:35:13.253Z,6.37
2018-12-30T04:37:41.973Z,6.44
2018-12-30T04:40:08.709Z,6.41
2018-12-30T04:42:35.404Z,6.37
2018-12-30T04:45:02.126Z,6.34
2018-12-30T04:47:28.988Z,6.28
2018-12-30T04:49:55.740Z,6.28
2018-12-30T04:52:25.806Z,6.38
2018-12-30T04:54:51.207Z,6.40
2018-12-30T04:57:17.915Z,6.40
2018-12-30T04:59:45.965Z,6.46
2018-12-30T05:02:12.716Z,6.48
2018-12-30T05:04:39.456Z,6.45
2018-12-30T05:07:06.194Z,6.45
2018-12-30T05:09:32.913Z,6.43
2018-12-30T05:11:59.655Z,6.46
2018-12-30T05:14:26.695Z,6.46
2018-12-30T05:16:53.374Z,6.51
2018-12-30T05:19:20.503Z,6.53
2018-12-30T05:21:47.205Z,6.53
2018-12-30T05:24:13.968Z,6.59
2018-12-30T05:26:40.666Z,6.60
2018-12-30T05:29:07.400Z,6.66
2018-12-30T05:31:34.132Z,6.59
2018-12-30T05:34:00.822Z,6.59
2018-12-30T05:36:27.575Z,6.64
2018-12-30T05:38:54.266Z,6.68
2018-12-30T05:41:20.992Z,6.65
2018-12-30T05:43:47.698Z,6.64
2018-12-30T05:46:14.392Z,6.59
2018-12-30T05:48:41.587Z,6.58
2018-12-30T05:51:08.377Z,6.60
2018-12-30T05:53:35.098Z,6.60
2018-12-30T05:56:01.793Z,6.67
2018-12-30T05:58:28.551Z,6.67
2018-12-30T06:00:55.251Z,6.64
2018-12-30T06:03:22.192Z,6.64
2018-12-30T06:05:48.899Z,6.71
2018-12-30T06:08:15.653Z,6.70
2018-12-30T06:10:42.497Z,6.70
2018-12-30T06:13:11.089Z,6.60
2018-12-30T06:15:37.807Z,6.60
2018-12-30T06:18:04.528Z,6.61
2018-12-30T06:20:31.438Z,6.59
2018-12-30T06:22:58.137Z,6.59
2018-12-30T06:25:24.821Z,6.65
2018-12-30T06:27:51.567Z,6.65
2018-12-30T06:30:18.294Z,6.71
2018-12-30T06:32:45.062Z,6.68
2018-12-30T06:35:11.778Z,6.75
2018-12-30T06:37:38.525Z,6.60
2018-12-30T06:40:11.262Z,6.61
2018-12-30T06:42:34.174Z,6.61
2018-12-30T06:45:01.233Z,6.46
2018-12-30T06:47:27.924Z,6.47
2018-12-30T06:49:55.049Z,6.56
2018-12-30T06:52:21.724Z,6.55
2018-12-30T06:54:48.451Z,6.55
2018-12-30T06:57:15.257Z,6.54
2018-12-30T06:59:41.961Z,6.49
2018-12-30T07:02:08.728Z,6.45
2018-12-30T07:04:35.441Z,6.56
2018-12-30T07:07:02.156Z,6.51
2018-12-30T07:09:28.884Z,6.48
2018-12-30T07:11:55.602Z,6.48
2018-12-30T07:14:22.328Z,6.36
2018-12-30T07:16:49.428Z,6.36
2018-12-30T07:19:16.210Z,6.44
2018-12-30T07:21:42.939Z,6.45
2018-12-30T07:24:09.696Z,6.45
2018-12-30T07:26:36.362Z,6.48
2018-12-30T07:29:03.557Z,6.44
2018-12-30T07:31:30.347Z,6.46
2018-12-30T07:33:57.077Z,6.43
2018-12-30T07:36:23.769Z,6.43
2018-12-30T07:38:50.799Z,6.49
2018-12-30T07:41:18.191Z,6.47
2018-12-30T07:43:45.257Z,6.51
2018-12-30T07:46:11.981Z,6.51
2018-12-30T07:48:38.721Z,6.56
2018-12-30T07:51:05.721Z,6.55
2018-12-30T07:53:32.466Z,6.51
2018-12-30T07:55:59.141Z,6.51
2018-12-30T07:58:25.868Z,6.63
2018-12-30T08:00:52.624Z,6.63
2018-12-30T08:03:19.600Z,6.72
2018-12-30T08:05:46.314Z,6.72
2018-12-30T08:08:13.021Z,6.68
2018-12-30T08:10:39.826Z,6.68
2018-12-30T08:13:06.538Z,6.79
2018-12-30T08:15:33.606Z,6.79
2018-12-30T08:18:00.400Z,6.81
2018-12-30T08:20:27.162Z,6.78
2018-12-30T08:22:53.871Z,6.79
2018-12-30T08:25:20.646Z,6.84
2018-12-30T08:27:47.488Z,6.81
2018-12-30T08:30:14.546Z,6.80
2018-12-30T08:32:41.256Z,6.88
2018-12-30T08:35:07.979Z,6.88
2018-12-30T08:37:34.682Z,6.82
2018-12-30T08:40:01.411Z,6.95
2018-12-30T08:42:28.239Z,6.95
2018-12-30T08:44:55.009Z,6.91
2018-12-30T08:47:21.787Z,6.88
2018-12-30T08:49:48.631Z,6.88
2018-12-30T08:52:15.614Z,6.93
2018-12-30T08:54:42.357Z,6.92
2018-12-30T08:57:09.121Z,6.96
2018-12-30T08:59:35.853Z,7.05
2018-12-30T09:02:02.552Z,7.07
2018-12-30T09:04:29.281Z,7.10
2018-12-30T09:06:56.008Z,7.10
2018-12-30T09:09:22.708Z,7.09
2018-12-30T09:11:49.508Z,7.09
2018-12-30T09:14:16.271Z,7.11
2018-12-30T09:16:44.673Z,7.11
2018-12-30T09:19:11.366Z,7.22
2018-12-30T09:21:38.436Z,7.22
2018-12-30T09:24:05.157Z,7.19
2018-12-30T09:26:31.855Z,7.19
2018-12-30T09:28:58.912Z,7.26
2018-12-30T09:31:26.832Z,7.27
2018-12-30T09:33:53.685Z,7.26
2018-12-30T09:36:21.815Z,7.27
2018-12-30T09:38:48.570Z,7.27
2018-12-30T09:41:15.474Z,7.21
2018-12-30T09:43:42.481Z,7.25
2018-12-30T09:46:09.192Z,7.27
2018-12-30T09:48:37.815Z,7.44
2018-12-30T09:51:04.540Z,7.44
2018-12-30T09:53:31.536Z,7.37
2018-12-30T09:55:58.261Z,7.49
2018-12-30T09:58:27.124Z,7.51
2018-12-30T10:00:53.898Z,7.59
2018-12-30T10:03:20.637Z,7.68
2018-12-30T10:05:47.371Z,7.69
2018-12-30T10:08:14.110Z,7.74
2018-12-30T10:10:40.872Z,7.84
2018-12-30T10:13:08.403Z,7.86
2018-12-30T10:15:38.257Z,7.85
2018-12-30T10:18:04.994Z,7.85
2018-12-30T10:20:31.673Z,7.79
2018-12-30T10:22:58.832Z,7.80
2018-12-30T10:25:25.806Z,7.72
2018-12-30T10:27:52.622Z,7.72
2018-12-30T10:30:19.342Z,7.76
2018-12-30T10:32:46.055Z,7.72
2018-12-30T10:35:12.930Z,7.71
2018-12-30T10:37:39.977Z,7.76
2018-12-30T10:40:06.724Z,7.77
2018-12-30T10:42:33.663Z,7.70
2018-12-30T10:45:00.371Z,7.72
2018-12-30T10:47:27.441Z,7.78
2018-12-30T10:49:54.133Z,7.65
2018-12-30T10:52:20.842Z,7.74
2018-12-30T10:54:47.705Z,7.74
2018-12-30T10:57:14.452Z,7.71
2018-12-30T10:59:41.219Z,7.70
2018-12-30T11:02:07.927Z,7.71
2018-12-30T11:04:34.714Z,7.76
2018-12-30T11:07:01.608Z,7.83
2018-12-30T11:09:28.315Z,7.88
2018-12-30T11:12:02.557Z,7.87
2018-12-30T11:14:29.823Z,7.86
2018-12-30T11:16:56.727Z,7.93
2018-12-30T11:19:23.676Z,7.92
2018-12-30T11:21:50.424Z,7.91
2018-12-30T11:24:17.243Z,7.96
2018-12-30T11:26:44.142Z,7.91
2018-12-30T11:29:10.864Z,7.95
2018-12-30T11:31:37.890Z,8.01
2018-12-30T11:34:07.135Z,8.03
2018-12-30T11:36:33.860Z,8.04
2018-12-30T11:39:00.611Z,8.07
2018-12-30T11:41:27.358Z,8.07
2018-12-30T11:43:54.082Z,8.12
2018-12-30T11:46:20.812Z,8.10
2018-12-30T11:48:47.635Z,8.12
2018-12-30T11:51:14.770Z,8.16
2018-12-30T11:53:41.838Z,8.16
2018-12-30T11:56:08.731Z,8.17
2018-12-30T11:58:35.651Z,8.20
2018-12-30T12:01:02.490Z,8.23
2018-12-30T12:03:29.219Z,8.20
2018-12-30T12:05:56.034Z,8.22
2018-12-30T12:08:23.173Z,8.22
2018-12-30T12:10:49.910Z,8.29
2018-12-30T12:13:16.609Z,8.29
2018-12-30T12:15:43.385Z,8.25
2018-12-30T12:18:10.107Z,8.20
2018-12-30T12:20:36.902Z,8.24
2018-12-30T12:23:03.650Z,8.24
2018-12-30T12:25:30.798Z,8.25
2018-12-30T12:27:57.547Z,8.21
2018-12-30T12:30:24.775Z,8.18
2018-12-30T12:32:51.927Z,8.20
2018-12-30T12:35:18.637Z,8.15
2018-12-30T12:37:45.387Z,8.15
2018-12-30T12:40:12.110Z,8.10
2018-12-30T12:42:38.856Z,8.05
2018-12-30T12:45:05.631Z,8.03
2018-12-30T12:47:32.562Z,8.04
2018-12-30T12:49:59.304Z,8.01
2018-12-30T12:52:26.309Z,8.03
2018-12-30T12:54:53.048Z,8.08
2018-12-30T12:57:22.704Z,8.05
2018-12-30T12:59:49.463Z,8.05
2018-12-30T13:02:16.186Z,8.13
2018-12-30T13:04:42.889Z,8.15
2018-12-30T13:07:09.652Z,8.15
2018-12-30T13:09:37.018Z,8.11
2018-12-30T13:12:03.779Z,8.11
2018-12-30T13:14:31.269Z,8.09
2018-12-30T13:16:59.440Z,8.18
2018-12-30T13:19:26.167Z,8.25
2018-12-30T13:21:52.935Z,8.22
2018-12-30T13:24:22.261Z,8.24
2018-12-30T13:26:51.029Z,8.27
2018-12-30T13:29:17.860Z,8.26
2018-12-30T13:31:44.610Z,8.19
2018-12-30T13:34:11.358Z,8.25
2018-12-30T13:36:38.368Z,8.22
2018-12-30T13:39:06.326Z,8.22
2018-12-30T13:41:33.066Z,8.18
2018-12-30T13:43:59.894Z,8.19
2018-12-30T13:46:26.601Z,8.20
2018-12-30T13:48:54.489Z,8.21
2018-12-30T13:51:21.238Z,8.26
2018-12-30T13:53:47.965Z,8.22
2018-12-30T13:56:14.958Z,8.25
2018-12-30T13:58:41.801Z,8.29
2018-12-30T14:01:08.534Z,8.30
2018-12-30T14:03:35.380Z,8.29
2018-12-30T14:06:03.536Z,8.33
2018-12-30T14:08:31.726Z,8.31
2018-12-30T14:10:58.443Z,8.32
2018-12-30T14:13:25.153Z,8.29
2018-12-30T14:15:52.316Z,8.27
2018-12-30T14:18:19.032Z,8.25
2018-12-30T14:20:46.146Z,8.28
2018-12-30T14:23:12.894Z,8.25
2018-12-30T14:25:39.711Z,8.26
2018-12-30T14:28:09.085Z,8.21
2018-12-30T14:30:35.809Z,8.14
2018-12-30T14:33:02.596Z,8.21
2018-12-30T14:35:30.010Z,8.17
2018-12-30T14:37:57.163Z,8.15
2018-12-30T14:40:23.992Z,8.22
2018-12-30T14:42:50.858Z,8.25
2018-12-30T14:45:17.688Z,8.25
2018-12-30T14:47:44.475Z,8.26
2018-12-30T14:50:11.894Z,8.21
2018-12-30T14:52:38.779Z,8.23
2018-12-30T14:55:06.012Z,8.20
2018-12-30T14:57:33.114Z,8.21
2018-12-30T15:00:00.034Z,8.16
2018-12-30T15:02:26.774Z,8.11
2018-12-30T15:04:53.495Z,8.06
2018-12-30T15:07:20.238Z,8.05
2018-12-30T15:09:47.045Z,8.10
2018-12-30T15:12:14.174Z,8.13
2018-12-30T15:14:40.992Z,8.15
2018-12-30T15:17:08.016Z,8.17
2018-12-30T15:19:34.802Z,8.18
2018-12-30T15:22:01.536Z,8.22
2018-12-30T15:24:28.263Z,8.24
2018-12-30T15:26:55.286Z,8.24
2018-12-30T15:29:22.089Z,8.10
2018-12-30T15:31:49.447Z,8.09
2018-12-30T15:34:16.458Z,8.09
2018-12-30T15:36:43.208Z,8.19
2018-12-30T15:39:10.265Z,8.21
2018-12-30T15:41:36.992Z,8.15
2018-12-30T15:44:05.024Z,8.19
2018-12-30T15:46:33.070Z,8.14
2018-12-30T15:48:59.941Z,8.05
2018-12-30T15:51:26.764Z,8.09
2018-12-30T15:53:54.787Z,8.15
2018-12-30T15:56:21.608Z,8.19
2018-12-30T15:58:48.364Z,8.19
2018-12-30T16:01:15.621Z,8.17
2018-12-30T16:03:42.892Z,8.13
2018-12-30T16:06:10.129Z,8.15
2018-12-30T16:08:36.985Z,8.15
2018-12-30T16:11:06.125Z,8.11
2018-12-30T16:13:32.930Z,8.10
2018-12-30T16:16:01.642Z,8.13
2018-12-30T16:18:28.378Z,8.15
2018-12-30T16:20:55.105Z,8.09
2018-12-30T16:23:22.356Z,8.10
2018-12-30T16:25:49.090Z,8.08
2018-12-30T16:28:15.931Z,8.09
2018-12-30T16:30:42.771Z,8.09
2018-12-30T16:33:10.016Z,8.03
2018-12-30T16:35:36.822Z,8.01
2018-12-30T16:38:05.338Z,8.01
2018-12-30T16:40:32.517Z,7.99
2018-12-30T16:42:59.289Z,8.06
2018-12-30T16:45:26.038Z,8.08
2018-12-30T16:48:01.179Z,8.06
2018-12-30T16:50:27.880Z,8.05
2018-12-30T16:52:55.050Z,8.04
2018-12-30T16:55:34.728Z,8.02
2018-12-30T16:57:56.949Z,7.98
2018-12-30T17:00:25.678Z,7.95
2018-12-30T17:02:52.584Z,7.95
2018-12-30T17:05:23.146Z,7.90
2018-12-30T17:07:50.286Z,7.90
2018-12-30T17:10:17.925Z,7.91
2018-12-30T17:12:44.924Z,7.91
2018-12-30T17:15:15.303Z,7.90
2018-12-30T17:17:43.599Z,7.88
2018-12-30T17:20:10.459Z,7.86
2018-12-30T17:22:37.188Z,7.89
2018-12-30T17:25:10.297Z,7.84
2018-12-30T17:27:37.123Z,7.77
2018-12-30T17:30:04.893Z,7.76
2018-12-30T17:32:31.654Z,7.68
2018-12-30T17:35:01.499Z,7.65
2018-12-30T17:37:28.219Z,7.67
2018-12-30T17:39:54.939Z,7.67
2018-12-30T17:42:21.665Z,7.69
2018-12-30T17:44:51.326Z,7.70
2018-12-30T17:47:20.322Z,7.70
2018-12-30T17:49:47.166Z,7.65
2018-12-30T17:52:14.020Z,7.62
2018-12-30T17:54:40.870Z,7.58
2018-12-30T17:57:11.034Z,7.58
2018-12-30T17:59:38.090Z,7.60
2018-12-30T18:02:04.842Z,7.58
2018-12-30T18:04:32.107Z,7.59
2018-12-30T18:07:04.581Z,7.61
2018-12-30T18:09:31.471Z,7.56
2018-12-30T18:11:58.969Z,7.54
2018-12-30T18:14:27.928Z,7.57
2018-12-30T18:16:55.000Z,7.61
2018-12-30T18:19:21.748Z,7.69
2018-12-30T18:21:48.583Z,7.67
2018-12-30T18:24:17.647Z,7.67
2018-12-30T18:26:44.932Z,7.73
2018-12-30T18:29:11.689Z,7.76
2018-12-30T18:31:38.545Z,7.77
2018-12-30T18:34:05.644Z,7.79
2018-12-30T18:36:32.492Z,7.83
2018-12-30T18:38:59.240Z,7.80
2018-12-30T18:41:26.023Z,7.84
2018-12-30T18:43:52.951Z,7.83
2018-12-30T18:46:19.693Z,7.88
2018-12-30T18:48:46.411Z,7.91
2018-12-30T18:51:13.136Z,7.93
2018-12-30T18:53:39.846Z,7.93
2018-12-30T18:56:07.190Z,7.92
2018-12-30T18:58:34.141Z,7.94
2018-12-30T19:01:01.741Z,7.95
2018-12-30T19:03:28.998Z,7.93
2018-12-30T19:05:55.973Z,7.89
2018-12-30T19:08:22.889Z,7.92
2018-12-30T19:10:49.635Z,7.90
2018-12-30T19:13:16.508Z,7.91
2018-12-30T19:15:43.589Z,7.95
2018-12-30T19:18:10.353Z,7.80
2018-12-30T19:20:37.096Z,7.83
2018-12-30T19:23:06.869Z,7.90
2018-12-30T19:25:33.597Z,7.85
2018-12-30T19:28:03.231Z,7.84
2018-12-30T19:30:31.090Z,7.85
2018-12-30T19:32:57.809Z,7.80
2018-12-30T19:35:24.567Z,7.86
2018-12-30T19:37:51.283Z,7.84
2018-12-30T19:40:18.047Z,7.83
2018-12-30T19:42:44.921Z,7.89
2018-12-30T19:45:11.679Z,7.88
2018-12-30T19:47:38.438Z,7.88
2018-12-30T19:50:05.564Z,7.92
2018-12-30T19:52:32.315Z,7.91
2018-12-30T19:54:59.024Z,7.96
2018-12-30T19:57:25.992Z,7.95
2018-12-30T19:59:53.175Z,7.94
2018-12-30T20:02:19.905Z,7.96
2018-12-30T20:04:46.635Z,7.87
2018-12-30T20:07:14.399Z,7.87
2018-12-30T20:09:41.856Z,7.91
2018-12-30T20:12:08.901Z,7.89
2018-12-30T20:14:35.821Z,7.92
2018-12-30T20:17:02.602Z,7.92
2018-12-30T20:19:29.420Z,7.94
2018-12-30T20:21:56.774Z,7.91
2018-12-30T20:24:23.699Z,7.86
2018-12-30T20:26:50.551Z,7.86
2018-12-30T20:29:17.444Z,7.91
2018-12-30T20:31:44.167Z,7.90
2018-12-30T20:34:12.004Z,7.92
2018-12-30T20:36:39.321Z,7.90
2018-12-30T20:39:06.754Z,7.90
2018-12-30T20:41:33.741Z,7.94
2018-12-30T20:44:00.587Z,7.94
2018-12-30T20:46:28.270Z,7.94
2018-12-30T20:48:55.027Z,7.89
2018-12-30T20:51:21.781Z,7.87
2018-12-30T20:53:48.524Z,7.90
2018-12-30T20:56:17.306Z,7.89
2018-12-30T20:58:44.050Z,7.90
2018-12-30T21:01:10.765Z,7.89
2018-12-30T21:03:37.533Z,7.89
2018-12-30T21:06:04.405Z,7.91
2018-12-30T21:08:31.540Z,7.83
2018-12-30T21:10:58.867Z,7.75
2018-12-30T21:13:25.739Z,7.74
2018-12-30T21:15:53.724Z,7.64
2018-12-30T21:18:21.002Z,7.66
2018-12-30T21:20:48.186Z,7.62
2018-12-30T21:23:15.311Z,7.58
2018-12-30T21:25:42.063Z,7.60
2018-12-30T21:28:09.288Z,7.57
2018-12-30T21:30:36.043Z,7.52
2018-12-30T21:33:03.446Z,7.48
2018-12-30T21:35:30.639Z,7.48
2018-12-30T21:37:57.611Z,7.41
2018-12-30T21:40:25.089Z,7.39
2018-12-30T21:42:52.142Z,7.41
2018-12-30T21:45:18.863Z,7.40
2018-12-30T21:47:46.093Z,7.40
2018-12-30T21:50:12.978Z,7.39
2018-12-30T21:52:39.859Z,7.43
2018-12-30T21:55:07.043Z,7.40
2018-12-30T21:57:36.275Z,7.39
2018-12-30T22:00:04.297Z,7.41
2018-12-30T22:02:31.393Z,7.35
2018-12-30T22:04:58.152Z,7.38
2018-12-30T22:07:25.061Z,7.43
2018-12-30T22:09:52.102Z,7.40
2018-12-30T22:12:18.824Z,7.37
2018-12-30T22:14:47.093Z,7.37
2018-12-30T22:17:14.236Z,7.40
2018-12-30T22:19:41.008Z,7.49
2018-12-30T22:22:08.447Z,7.53
2018-12-30T22:24:35.462Z,7.53
2018-12-30T22:27:02.331Z,7.58
2018-12-30T22:29:29.314Z,7.66
2018-12-30T22:31:56.129Z,7.64
2018-12-30T22:34:23.020Z,7.72
2018-12-30T22:36:49.775Z,7.67
2018-12-30T22:39:16.652Z,7.70
2018-12-30T22:41:43.413Z,7.72
2018-12-30T22:44:10.179Z,7.75
2018-12-30T22:46:37.041Z,7.74
2018-12-30T22:49:03.792Z,7.66
2018-12-30T22:51:30.939Z,7.52
2018-12-30T22:53:58.963Z,7.46
2018-12-30T22:56:25.809Z,7.51
2018-12-30T22:58:52.491Z,7.73
2018-12-30T23:01:23.548Z,7.82
2018-12-30T23:03:50.419Z,7.85
2018-12-30T23:06:17.172Z,7.86
2018-12-30T23:08:43.926Z,7.96
2018-12-30T23:11:10.941Z,8.00
2018-12-30T23:13:37.711Z,7.94
2018-12-30T23:16:04.420Z,7.90
2018-12-30T23:18:31.198Z,7.91
2018-12-30T23:20:57.969Z,7.93
2018-12-30T23:23:24.724Z,7.96
2018-12-30T23:25:51.846Z,7.97
2018-12-30T23:28:21.282Z,7.85
2018-12-30T23:30:48.992Z,7.82
2018-12-30T23:33:15.852Z,7.82
2018-12-30T23:35:42.730Z,7.85
2018-12-30T23:38:09.594Z,7.97
2018-12-30T23:40:36.358Z,7.99
2018-12-30T23:43:05.069Z,7.89
2018-12-30T23:45:31.789Z,7.82
2018-12-30T23:47:58.558Z,7.81
2018-12-30T23:50:25.612Z,7.73
2018-12-30T23:52:52.311Z,7.77
2018-12-30T23:55:19.066Z,7.86
2018-12-30T23:57:45.805Z,7.95
